createdAt,value
2019-05-07T00:00:46.636Z,78.30
2019-05-07T00:03:17.937Z,78.40
2019-05-07T00:05:48.127Z,78.50
2019-05-07T00:08:18.305Z,78.50
2019-05-07T00:10:48.515Z,77.90
2019-05-07T00:13:18.810Z,78.00
2019-05-07T00:15:49.174Z,78.10
2019-05-07T00:18:19.474Z,78.10
2019-05-07T00:20:49.452Z,77.80
2019-05-07T00:23:19.654Z,77.50
2019-05-07T00:25:49.912Z,77.70
2019-05-07T00:28:20.209Z,77.80
2019-05-07T00:30:52.120Z,77.60
2019-05-07T00:33:23.123Z,77.30
2019-05-07T00:35:55.008Z,77.10
2019-05-07T00:38:26.646Z,77.10
2019-05-07T00:41:07.531Z,77.00
2019-05-07T00:43:38.609Z,77.20
2019-05-07T00:46:13.399Z,77.00
2019-05-07T00:48:43.561Z,77.40
2019-05-07T00:51:24.397Z,77.80
2019-05-07T00:53:54.983Z,77.80
2019-05-07T00:56:25.393Z,77.30
2019-05-07T00:58:55.553Z,77.40
2019-05-07T01:01:25.707Z,77.40
2019-05-07T01:03:55.947Z,77.30
2019-05-07T01:06:26.622Z,77.90
2019-05-07T01:08:57.008Z,77.70
2019-05-07T01:11:27.302Z,77.70
2019-05-07T01:13:57.564Z,77.70
2019-05-07T01:16:27.643Z,78.40
2019-05-07T01:18:57.827Z,78.60
2019-05-07T01:21:27.707Z,79.20
2019-05-07T01:23:57.899Z,79.60
2019-05-07T01:26:32.917Z,79.70
2019-05-07T01:29:03.290Z,79.60
2019-05-07T01:31:36.028Z,80.40
2019-05-07T01:34:23.213Z,80.50
2019-05-07T01:36:53.566Z,80.30
2019-05-07T01:39:23.451Z,80.20
2019-05-07T01:41:53.808Z,79.80
2019-05-07T01:44:24.052Z,79.80
2019-05-07T01:46:54.298Z,79.60
2019-05-07T01:49:24.526Z,79.20
2019-05-07T01:51:54.894Z,79.40
2019-05-07T01:54:24.782Z,79.10
2019-05-07T01:56:54.864Z,79.20
2019-05-07T01:59:24.897Z,79.20
2019-05-07T02:01:56.711Z,79.50
2019-05-07T02:04:42.617Z,79.10
2019-05-07T02:07:26.874Z,79.60
2019-05-07T02:10:02.831Z,79.90
2019-05-07T02:12:35.124Z,80.30
2019-05-07T02:15:07.021Z,79.80
2019-05-07T02:17:36.971Z,79.90
2019-05-07T02:20:07.455Z,79.80
2019-05-07T02:22:37.654Z,79.80
2019-05-07T02:25:07.959Z,79.50
2019-05-07T02:27:37.819Z,79.60
2019-05-07T02:30:08.362Z,79.50
2019-05-07T02:32:43.380Z,79.90
2019-05-07T02:35:13.632Z,80.30
2019-05-07T02:37:51.342Z,80.40
2019-05-07T02:40:19.263Z,80.00
2019-05-07T02:42:49.492Z,80.00
2019-05-07T02:45:32.932Z,80.10
2019-05-07T02:48:03.496Z,80.10
2019-05-07T02:50:34.754Z,79.90
2019-05-07T02:53:06.671Z,80.10
2019-05-07T02:55:44.479Z,79.80
2019-05-07T02:58:14.572Z,79.90
2019-05-07T03:00:44.951Z,79.50
2019-05-07T03:03:15.271Z,79.30
2019-05-07T03:05:45.244Z,79.00
2019-05-07T03:08:15.494Z,79.20
2019-05-07T03:10:45.781Z,79.10
2019-05-07T03:13:15.901Z,79.10
2019-05-07T03:15:46.303Z,78.80
2019-05-07T03:18:18.967Z,78.90
2019-05-07T03:20:49.688Z,78.80
2019-05-07T03:23:22.808Z,78.60
2019-05-07T03:25:54.555Z,78.10
2019-05-07T03:28:25.965Z,78.80
2019-05-07T03:31:05.748Z,78.70
2019-05-07T03:33:48.241Z,79.10
2019-05-07T03:36:20.109Z,78.80
2019-05-07T03:38:50.419Z,79.00
2019-05-07T03:41:22.667Z,78.80
2019-05-07T03:43:53.092Z,79.40
2019-05-07T03:46:23.737Z,79.70
2019-05-07T03:48:53.992Z,79.40
2019-05-07T03:51:24.096Z,79.10
2019-05-07T03:53:54.791Z,79.30
2019-05-07T03:56:25.090Z,78.80
2019-05-07T03:58:55.216Z,78.10
2019-05-07T04:01:25.407Z,78.00
2019-05-07T04:03:56.499Z,78.70
2019-05-07T04:06:26.436Z,79.00
2019-05-07T04:08:56.545Z,79.30
2019-05-07T04:11:29.349Z,79.00
2019-05-07T04:14:02.342Z,79.00
2019-05-07T04:16:33.260Z,79.10
2019-05-07T04:19:03.916Z,79.60
2019-05-07T04:21:34.602Z,79.80
2019-05-07T04:24:23.516Z,80.00
2019-05-07T04:26:55.372Z,80.50
2019-05-07T04:29:26.594Z,81.10
2019-05-07T04:31:56.836Z,81.70
2019-05-07T04:34:46.800Z,82.10
2019-05-07T04:37:16.627Z,82.60
2019-05-07T04:39:54.045Z,82.90
2019-05-07T04:42:25.459Z,83.30
2019-05-07T04:44:56.627Z,83.30
2019-05-07T04:47:41.320Z,84.10
2019-05-07T04:49:58.066Z,84.00
2019-05-07T04:52:33.669Z,83.90
2019-05-07T04:55:05.327Z,83.80
2019-05-07T04:57:35.311Z,83.70
2019-05-07T05:00:07.662Z,83.20
2019-05-07T05:02:48.789Z,82.80
2019-05-07T05:05:23.260Z,82.60
2019-05-07T05:07:53.384Z,82.40
2019-05-07T05:10:24.700Z,82.20
2019-05-07T05:12:55.807Z,82.10
2019-05-07T05:15:25.995Z,81.80
2019-05-07T05:17:56.232Z,81.40
2019-05-07T05:20:30.809Z,81.00
2019-05-07T05:23:08.047Z,80.50
2019-05-07T05:25:43.093Z,80.50
2019-05-07T05:28:13.686Z,80.80
2019-05-07T05:30:55.150Z,80.20
2019-05-07T05:33:25.256Z,80.00
2019-05-07T05:35:56.390Z,80.60
2019-05-07T05:38:26.440Z,80.50
2019-05-07T05:40:57.648Z,79.80
2019-05-07T05:43:32.085Z,79.30
2019-05-07T05:46:07.071Z,79.00
2019-05-07T05:48:37.654Z,78.90
2019-05-07T05:51:26.017Z,78.40
2019-05-07T05:53:57.482Z,77.40
2019-05-07T05:56:29.266Z,77.40
2019-05-07T05:59:25.356Z,77.20
2019-05-07T06:02:06.665Z,76.60
2019-05-07T06:04:38.300Z,75.90
2019-05-07T06:07:14.780Z,75.90
2019-05-07T06:10:02.771Z,75.40
2019-05-07T06:12:37.069Z,74.80
2019-05-07T06:15:24.247Z,74.50
2019-05-07T06:17:55.840Z,73.60
2019-05-07T06:20:36.457Z,73.70
2019-05-07T06:23:12.691Z,72.90
2019-05-07T06:25:44.098Z,72.00
2019-05-07T06:28:14.252Z,72.10
2019-05-07T06:30:44.146Z,72.10
2019-05-07T06:33:14.072Z,72.10
2019-05-07T06:35:44.245Z,73.50
2019-05-07T06:38:15.149Z,73.30
2019-05-07T06:40:55.739Z,72.00
2019-05-07T06:43:33.200Z,72.40
2019-05-07T06:46:04.989Z,73.20
2019-05-07T06:48:42.418Z,70.10
2019-05-07T06:51:07.604Z,70.30
2019-05-07T06:53:37.768Z,67.00
2019-05-07T06:56:08.014Z,67.20
2019-05-07T06:58:42.732Z,66.70
2019-05-07T07:01:23.292Z,66.80
2019-05-07T07:04:02.641Z,65.50
2019-05-07T07:06:38.052Z,65.50
2019-05-07T07:09:22.566Z,65.50
2019-05-07T07:11:54.491Z,64.50
2019-05-07T07:14:24.815Z,64.10
2019-05-07T07:16:55.078Z,65.30
2019-05-07T07:19:25.333Z,65.00
2019-05-07T07:21:55.723Z,64.90
2019-05-07T07:24:26.838Z,65.00
2019-05-07T07:26:57.015Z,65.20
2019-05-07T07:29:28.861Z,64.00
2019-05-07T07:32:03.434Z,63.70
2019-05-07T07:34:35.194Z,63.40
2019-05-07T07:37:10.965Z,63.00
2019-05-07T07:39:39.102Z,61.60
2019-05-07T07:42:12.284Z,61.20
2019-05-07T07:44:42.642Z,60.00
2019-05-07T07:47:13.109Z,59.60
2019-05-07T07:49:43.317Z,60.60
2019-05-07T07:52:13.205Z,58.50
2019-05-07T07:54:43.356Z,59.10
2019-05-07T07:57:16.107Z,60.10
2019-05-07T07:59:53.603Z,59.00
2019-05-07T08:02:28.065Z,58.90
2019-05-07T08:04:58.291Z,57.20
2019-05-07T08:07:28.204Z,56.20
2019-05-07T08:09:58.123Z,56.30
2019-05-07T08:12:28.056Z,54.90
2019-05-07T08:15:13.604Z,53.90
2019-05-07T08:17:32.506Z,54.20
2019-05-07T08:20:02.612Z,53.10
2019-05-07T08:22:33.074Z,52.00
2019-05-07T08:25:04.483Z,50.60
2019-05-07T08:27:34.764Z,50.20
2019-05-07T08:30:07.313Z,51.70
2019-05-07T08:32:39.332Z,50.50
2019-05-07T08:35:23.402Z,49.70
2019-05-07T08:37:53.346Z,48.60
2019-05-07T08:40:23.595Z,48.80
2019-05-07T08:42:54.661Z,48.10
2019-05-07T08:45:43.295Z,49.60
2019-05-07T08:48:18.924Z,47.70
2019-05-07T08:50:49.152Z,46.30
2019-05-07T08:53:19.380Z,46.50
2019-05-07T08:55:49.638Z,46.70
2019-05-07T08:58:19.900Z,45.20
2019-05-07T09:00:52.166Z,45.10
2019-05-07T09:03:35.670Z,45.50
2019-05-07T09:06:05.943Z,44.00
2019-05-07T09:08:36.101Z,43.90
2019-05-07T09:11:06.418Z,42.60
2019-05-07T09:13:36.753Z,42.80
2019-05-07T09:16:07.029Z,42.00
2019-05-07T09:18:37.293Z,41.70
2019-05-07T09:21:07.521Z,44.20
2019-05-07T09:23:37.929Z,42.20
2019-05-07T09:26:09.847Z,41.30
2019-05-07T09:28:53.056Z,41.10
2019-05-07T09:31:24.849Z,39.50
2019-05-07T09:34:03.702Z,41.10
2019-05-07T09:36:38.092Z,41.30
2019-05-07T09:39:08.532Z,41.90
2019-05-07T09:41:38.742Z,40.40
2019-05-07T09:44:08.973Z,40.90
2019-05-07T09:46:39.249Z,40.60
2019-05-07T09:49:09.333Z,40.10
2019-05-07T09:51:39.508Z,40.60
2019-05-07T09:54:09.874Z,40.90
2019-05-07T09:56:42.125Z,39.60
2019-05-07T09:59:12.587Z,39.10
2019-05-07T10:01:42.989Z,40.90
2019-05-07T10:04:14.360Z,39.00
2019-05-07T10:06:44.544Z,37.80
2019-05-07T10:09:15.002Z,36.90
2019-05-07T10:12:02.763Z,37.20
2019-05-07T10:14:33.200Z,34.50
2019-05-07T10:17:09.139Z,35.60
2019-05-07T10:19:39.121Z,34.10
2019-05-07T10:22:09.114Z,33.60
2019-05-07T10:24:41.775Z,34.20
2019-05-07T10:27:12.657Z,33.80
2019-05-07T10:29:42.924Z,33.80
2019-05-07T10:32:13.336Z,32.50
2019-05-07T10:34:43.758Z,33.60
2019-05-07T10:37:14.095Z,34.00
2019-05-07T10:39:44.134Z,34.90
2019-05-07T10:42:14.045Z,35.60
2019-05-07T10:44:48.771Z,35.60
2019-05-07T10:47:26.322Z,34.60
2019-05-07T10:50:16.043Z,35.10
2019-05-07T10:52:46.470Z,33.50
2019-05-07T10:55:16.880Z,31.60
2019-05-07T10:57:47.248Z,33.40
2019-05-07T11:00:19.325Z,36.00
2019-05-07T11:02:49.309Z,33.80
2019-05-07T11:05:21.819Z,31.70
2019-05-07T11:07:53.723Z,30.30
2019-05-07T11:10:23.942Z,32.50
2019-05-07T11:12:54.015Z,31.70
2019-05-07T11:15:25.263Z,32.20
2019-05-07T11:18:12.679Z,31.60
2019-05-07T11:20:49.727Z,32.20
2019-05-07T11:23:16.066Z,30.20
2019-05-07T11:25:46.139Z,32.30
2019-05-07T11:28:16.459Z,33.10
2019-05-07T11:30:46.719Z,32.70
2019-05-07T11:33:16.852Z,30.20
2019-05-07T11:35:46.790Z,28.90
2019-05-07T11:38:21.511Z,28.40
2019-05-07T11:40:49.195Z,29.00
2019-05-07T11:43:25.808Z,27.40
2019-05-07T11:46:15.861Z,27.60
2019-05-07T11:48:56.324Z,26.20
2019-05-07T11:51:36.957Z,27.30
2019-05-07T11:54:14.193Z,27.10
2019-05-07T11:56:44.205Z,26.80
2019-05-07T11:59:14.507Z,27.00
2019-05-07T12:02:04.209Z,26.30
2019-05-07T12:04:34.575Z,26.10
2019-05-07T12:07:04.930Z,27.00
2019-05-07T12:09:35.282Z,25.10
2019-05-07T12:12:06.500Z,25.70
2019-05-07T12:14:36.840Z,25.10
2019-05-07T12:17:07.319Z,27.60
2019-05-07T12:19:37.240Z,28.10
2019-05-07T12:22:07.601Z,26.00
2019-05-07T12:24:37.820Z,27.70
2019-05-07T12:27:09.493Z,28.00
2019-05-07T12:29:40.038Z,26.20
2019-05-07T12:32:22.078Z,25.30
2019-05-07T12:34:54.012Z,27.30
2019-05-07T12:37:24.280Z,27.50
2019-05-07T12:39:54.541Z,27.00
2019-05-07T12:42:24.935Z,27.60
2019-05-07T12:44:55.255Z,27.10
2019-05-07T12:47:25.702Z,28.60
2019-05-07T12:49:55.735Z,29.10
2019-05-07T12:52:27.779Z,29.20
2019-05-07T12:54:59.844Z,29.50
2019-05-07T12:57:30.457Z,28.60
2019-05-07T13:00:02.537Z,29.30
2019-05-07T13:02:40.932Z,25.20
2019-05-07T13:05:07.707Z,26.10
2019-05-07T13:07:41.815Z,27.90
2019-05-07T13:10:12.151Z,27.90
2019-05-07T13:12:44.380Z,28.30
2019-05-07T13:15:26.774Z,28.00
2019-05-07T13:17:47.607Z,26.70
2019-05-07T13:20:17.940Z,27.60
2019-05-07T13:22:48.262Z,27.00
2019-05-07T13:25:18.549Z,28.80
2019-05-07T13:27:48.567Z,26.90
2019-05-07T13:30:22.075Z,27.00
2019-05-07T13:32:53.512Z,26.20
2019-05-07T13:35:25.200Z,26.10
2019-05-07T13:38:03.108Z,26.10
2019-05-07T13:40:37.406Z,25.50
2019-05-07T13:43:18.197Z,26.00
2019-05-07T13:46:08.095Z,26.10
2019-05-07T13:48:42.424Z,26.00
2019-05-07T13:51:13.451Z,25.90
2019-05-07T13:53:48.087Z,25.00
2019-05-07T13:56:18.843Z,27.50
2019-05-07T13:58:49.369Z,28.60
2019-05-07T14:01:32.648Z,28.30
2019-05-07T14:04:04.097Z,28.50
2019-05-07T14:06:42.707Z,29.10
2019-05-07T14:09:15.492Z,27.70
2019-05-07T14:11:45.944Z,28.30
2019-05-07T14:14:16.750Z,28.10
2019-05-07T14:16:50.013Z,28.20
2019-05-07T14:19:22.477Z,27.60
2019-05-07T14:21:55.977Z,29.30
2019-05-07T14:24:33.620Z,29.20
2019-05-07T14:27:11.287Z,29.90
2019-05-07T14:29:42.882Z,29.80
2019-05-07T14:32:16.468Z,29.10
2019-05-07T14:35:04.283Z,29.30
2019-05-07T14:37:39.022Z,29.80
2019-05-07T14:40:09.888Z,28.30
2019-05-07T14:42:47.656Z,29.30
2019-05-07T14:45:18.154Z,30.50
2019-05-07T14:47:48.220Z,29.40
2019-05-07T14:50:22.408Z,30.60
2019-05-07T14:52:55.272Z,29.80
2019-05-07T14:55:24.390Z,29.60
2019-05-07T14:57:55.211Z,30.30
2019-05-07T15:00:25.475Z,31.10
2019-05-07T15:02:55.810Z,28.70
2019-05-07T15:05:26.337Z,29.00
2019-05-07T15:08:07.488Z,28.90
2019-05-07T15:10:28.916Z,27.80
2019-05-07T15:12:59.264Z,28.60
2019-05-07T15:15:30.543Z,27.80
2019-05-07T15:18:18.427Z,29.20
2019-05-07T15:20:48.807Z,29.10
2019-05-07T15:23:23.545Z,29.70
2019-05-07T15:25:54.065Z,30.00
2019-05-07T15:28:24.479Z,29.40
2019-05-07T15:30:59.393Z,29.30
2019-05-07T15:33:32.343Z,29.60
2019-05-07T15:36:06.099Z,30.50
2019-05-07T15:38:35.410Z,30.80
2019-05-07T15:41:05.627Z,30.20
2019-05-07T15:43:35.659Z,29.70
2019-05-07T15:46:06.020Z,30.10
2019-05-07T15:48:36.686Z,29.80
2019-05-07T15:51:07.088Z,30.00
2019-05-07T15:53:56.221Z,31.20
2019-05-07T15:56:26.766Z,31.20
2019-05-07T15:58:56.876Z,30.90
2019-05-07T16:01:28.412Z,32.50
2019-05-07T16:03:58.878Z,31.20
2019-05-07T16:06:28.921Z,30.00
2019-05-07T16:09:04.194Z,30.90
2019-05-07T16:11:34.073Z,30.90
2019-05-07T16:14:06.044Z,31.40
2019-05-07T16:16:42.721Z,32.90
2019-05-07T16:19:14.519Z,33.20
2019-05-07T16:21:44.801Z,33.70
2019-05-07T16:24:14.815Z,33.50
2019-05-07T16:26:45.360Z,32.40
2019-05-07T16:29:15.749Z,31.90
2019-05-07T16:31:48.661Z,31.80
2019-05-07T16:34:17.619Z,32.50
2019-05-07T16:36:47.718Z,32.50
2019-05-07T16:39:17.763Z,32.10
2019-05-07T16:41:47.924Z,33.50
2019-05-07T16:44:17.939Z,33.40
2019-05-07T16:46:48.213Z,32.60
2019-05-07T16:49:18.274Z,32.50
2019-05-07T16:51:48.365Z,33.40
2019-05-07T16:54:18.694Z,33.20
2019-05-07T16:57:06.480Z,33.60
2019-05-07T16:59:36.873Z,33.20
2019-05-07T17:02:09.004Z,34.20
2019-05-07T17:04:42.504Z,33.80
2019-05-07T17:07:14.625Z,34.70
2019-05-07T17:09:53.009Z,34.20
2019-05-07T17:12:23.196Z,34.70
2019-05-07T17:14:53.109Z,34.60
2019-05-07T17:17:23.362Z,35.00
2019-05-07T17:19:53.952Z,35.40
2019-05-07T17:22:25.271Z,36.00
2019-05-07T17:24:58.053Z,36.30
2019-05-07T17:27:32.160Z,36.10
2019-05-07T17:30:02.905Z,36.20
2019-05-07T17:32:33.318Z,36.00
2019-05-07T17:35:03.667Z,36.00
2019-05-07T17:37:34.540Z,37.00
2019-05-07T17:40:06.822Z,37.10
2019-05-07T17:42:37.071Z,37.30
2019-05-07T17:45:08.628Z,37.40
2019-05-07T17:47:38.896Z,37.70
2019-05-07T17:50:12.675Z,38.00
2019-05-07T17:52:43.133Z,38.30
2019-05-07T17:55:13.207Z,38.40
2019-05-07T17:57:43.534Z,38.40
2019-05-07T18:00:15.210Z,38.70
2019-05-07T18:03:04.178Z,39.10
2019-05-07T18:05:35.767Z,39.50
2019-05-07T18:08:06.074Z,39.50
2019-05-07T18:10:36.543Z,39.40
2019-05-07T18:13:08.181Z,39.90
2019-05-07T18:15:38.576Z,39.90
2019-05-07T18:18:12.804Z,39.70
2019-05-07T18:20:43.191Z,39.90
2019-05-07T18:23:16.894Z,40.50
2019-05-07T18:25:46.114Z,42.90
2019-05-07T18:28:16.223Z,44.30
2019-05-07T18:30:46.702Z,45.70
2019-05-07T18:33:19.039Z,45.60
2019-05-07T18:35:52.524Z,45.70
2019-05-07T18:38:22.996Z,45.90
2019-05-07T18:40:53.540Z,46.20
2019-05-07T18:43:43.170Z,46.60
2019-05-07T18:46:18.957Z,47.10
2019-05-07T18:49:08.687Z,47.60
2019-05-07T18:51:52.161Z,48.30
2019-05-07T18:54:30.296Z,49.20
2019-05-07T18:56:55.212Z,50.00
2019-05-07T18:59:27.141Z,50.50
2019-05-07T19:01:57.442Z,51.00
2019-05-07T19:04:30.177Z,52.30
2019-05-07T19:07:00.032Z,52.30
2019-05-07T19:09:32.013Z,53.00
2019-05-07T19:12:03.091Z,53.00
2019-05-07T19:14:34.866Z,53.10
2019-05-07T19:17:05.303Z,53.50
2019-05-07T19:19:37.263Z,54.30
2019-05-07T19:22:09.650Z,54.90
2019-05-07T19:24:45.316Z,55.50
2019-05-07T19:27:12.575Z,56.20
2019-05-07T19:29:45.681Z,56.10
2019-05-07T19:32:14.997Z,56.20
2019-05-07T19:34:45.475Z,56.30
2019-05-07T19:37:16.122Z,56.60
2019-05-07T19:39:46.868Z,56.60
2019-05-07T19:42:17.227Z,57.10
2019-05-07T19:44:47.854Z,57.60
2019-05-07T19:47:18.400Z,58.50
2019-05-07T19:49:49.835Z,58.40
2019-05-07T19:52:20.210Z,59.10
2019-05-07T19:54:58.748Z,59.80
2019-05-07T19:57:23.757Z,59.80
2019-05-07T19:59:55.041Z,60.00
2019-05-07T20:02:28.048Z,60.10
2019-05-07T20:04:58.157Z,60.30
2019-05-07T20:07:28.202Z,61.10
2019-05-07T20:09:58.839Z,61.80
2019-05-07T20:12:32.113Z,62.10
2019-05-07T20:15:02.742Z,62.20
2019-05-07T20:17:34.046Z,62.50
2019-05-07T20:20:06.526Z,62.60
2019-05-07T20:22:36.840Z,63.20
2019-05-07T20:25:18.567Z,63.10
2019-05-07T20:27:41.839Z,62.90
2019-05-07T20:30:12.508Z,62.80
2019-05-07T20:32:42.929Z,62.90
2019-05-07T20:35:13.426Z,63.20
2019-05-07T20:37:43.797Z,64.20
2019-05-07T20:40:14.248Z,64.70
2019-05-07T20:42:44.486Z,63.70
2019-05-07T20:45:14.950Z,63.70
2019-05-07T20:47:46.193Z,63.70
2019-05-07T20:50:16.524Z,62.30
2019-05-07T20:52:46.760Z,62.70
2019-05-07T20:55:28.176Z,63.20
2019-05-07T20:57:51.698Z,63.60
2019-05-07T21:00:24.161Z,64.10
2019-05-07T21:03:12.527Z,64.50
2019-05-07T21:05:42.884Z,65.10
2019-05-07T21:08:13.060Z,64.50
2019-05-07T21:10:43.278Z,64.00
2019-05-07T21:13:27.654Z,63.90
2019-05-07T21:15:45.926Z,63.00
2019-05-07T21:18:16.281Z,62.80
2019-05-07T21:20:46.639Z,62.20
2019-05-07T21:23:17.700Z,62.00
2019-05-07T21:25:47.921Z,62.50
2019-05-07T21:28:18.126Z,62.90
2019-05-07T21:30:48.284Z,62.30
2019-05-07T21:33:18.557Z,62.10
2019-05-07T21:35:48.791Z,62.80
2019-05-07T21:38:22.088Z,62.10
2019-05-07T21:40:51.632Z,62.20
2019-05-07T21:43:22.874Z,62.30
2019-05-07T21:45:53.174Z,62.00
2019-05-07T21:48:23.144Z,62.20
2019-05-07T21:50:53.666Z,62.40
2019-05-07T21:53:43.451Z,62.40
2019-05-07T21:56:22.662Z,62.30
2019-05-07T21:58:56.819Z,63.00
2019-05-07T22:01:28.889Z,63.70
2019-05-07T22:04:01.726Z,63.90
2019-05-07T22:06:31.140Z,64.40
2019-05-07T22:09:01.960Z,64.20
2019-05-07T22:11:33.692Z,64.20
2019-05-07T22:14:03.706Z,64.20
2019-05-07T22:16:34.044Z,64.30
2019-05-07T22:19:04.626Z,64.40
2019-05-07T22:21:34.769Z,64.10
2019-05-07T22:24:04.932Z,64.80
2019-05-07T22:26:35.225Z,65.60
2019-05-07T22:29:05.324Z,66.40
2019-05-07T22:31:43.962Z,67.30
2019-05-07T22:34:31.208Z,67.20
2019-05-07T22:37:03.279Z,67.60
2019-05-07T22:39:43.904Z,67.60
2019-05-07T22:42:15.656Z,67.80
2019-05-07T22:44:45.585Z,68.30
2019-05-07T22:47:18.981Z,67.80
2019-05-07T22:49:49.992Z,67.80
2019-05-07T22:52:22.248Z,68.10
2019-05-07T22:54:51.767Z,68.10
2019-05-07T22:57:23.727Z,68.70
2019-05-07T22:59:53.682Z,68.70
2019-05-07T23:02:23.735Z,69.00
2019-05-07T23:04:53.611Z,69.00
2019-05-07T23:07:23.734Z,69.90
2019-05-07T23:09:53.883Z,70.20
2019-05-07T23:12:24.104Z,70.10
2019-05-07T23:14:54.300Z,69.70
2019-05-07T23:17:24.474Z,70.00
2019-05-07T23:19:55.129Z,69.40
2019-05-07T23:22:25.168Z,68.80
2019-05-07T23:24:55.343Z,69.50
2019-05-07T23:27:25.463Z,69.80
2019-05-07T23:29:55.502Z,70.10
2019-05-07T23:32:25.739Z,70.50
2019-05-07T23:34:55.873Z,70.50
2019-05-07T23:37:25.992Z,70.70
2019-05-07T23:39:57.870Z,70.00
2019-05-07T23:42:35.289Z,70.30
2019-05-07T23:45:06.923Z,70.40
2019-05-07T23:47:37.062Z,70.70
2019-05-07T23:50:07.258Z,70.80
2019-05-07T23:52:37.174Z,70.80
2019-05-07T23:55:07.613Z,70.70
2019-05-07T23:57:37.865Z,70.30
